Terminal Aerodrome Forecast
Issued by NWS

Home | Current Version | Previous Version | Text Only | Print | Product List | Glossary On
Versions: 1 2 3 4 5 6 7 8 9 10 11 12 13
000
FTUS43 KJKL 011700 RRA
TAFSJS
TAF
KSJS 011741Z 0118/0218 16008G15KT P6SM OVC100
     FM012300 18009G17KT 5SM -RA BR OVC025
     FM020500 22010G20KT 3SM -RA BR OVC010
     FM021100 27010G20KT 2SM -SN OVC015
     FM021600 29010G18KT P6SM VCSH BKN010 OVC020=

USA.gov is the U.S. government's official web portal to all federal, state and local government web resources and services.